Time;durP1;ratioP1;P1;durP2;ratioP2;P2;SDS_P1;SDS_P2;PMS_P1;PMS_P2;Temp;Humidity;BMP_temperature;BMP_pressure;BME280_temperature;BME280_humidity;BME280_pressure;Samples;Min_cycle;Max_cycle;Signal;HPM_P1;HPM_P2
2023/01/16 00:00:19;;;;;;;3.90;0.85;;;;;;;-0.73;100.00;91847.59;2521446;23;20011;-86
2023/01/16 00:01:24;;;;;;;2.28;0.75;;;;;;;-0.82;100.00;91845.34;2522223;23;20172;-84
2023/01/16 00:02:25;;;;;;;2.50;0.70;;;;;;;-0.71;100.00;91843.47;2523357;23;20033;-83
2023/01/16 00:03:26;;;;;;;6.72;1.38;;;;;;;-0.69;100.00;91840.47;2533822;23;20048;-89
2023/01/16 00:04:28;;;;;;;2.65;0.90;;;;;;;-0.79;100.00;91839.34;2545546;23;20067;-83
2023/01/16 00:05:29;;;;;;;2.35;0.82;;;;;;;-0.74;100.00;91840.84;2545139;23;20009;-83
2023/01/16 00:06:30;;;;;;;4.57;0.93;;;;;;;-0.72;100.00;91838.59;2521679;23;20040;-87
2023/01/16 00:07:31;;;;;;;7.18;1.20;;;;;;;-0.74;100.00;91833.72;2521561;23;20380;-85
2023/01/16 00:08:31;;;;;;;1.00;0.60;;;;;;;-0.76;100.00;91826.22;2533570;23;20409;-88
2023/01/16 00:09:33;;;;;;;2.42;0.80;;;;;;;-0.76;100.00;91830.72;2532898;23;20040;-83
2023/01/16 00:10:35;;;;;;;2.78;0.98;;;;;;;-0.60;100.00;91831.09;2521856;23;20129;-85
2023/01/16 00:11:36;;;;;;;8.05;1.20;;;;;;;-0.71;100.00;91832.97;2545653;23;20060;-85
2023/01/16 00:12:36;;;;;;;7.65;0.88;;;;;;;-0.75;100.00;91821.72;2545611;23;20436;-86
2023/01/16 00:13:38;;;;;;;3.55;0.93;;;;;;;-0.85;100.00;91822.47;2533012;23;20006;-85
2023/01/16 00:14:39;;;;;;;6.60;1.50;;;;;;;-0.68;100.00;91815.72;2545424;23;20085;-85
2023/01/16 00:15:49;;;;;;;3.45;0.70;;;;;;;-0.74;100.00;91812.75;2545291;23;20028;-86
2023/01/16 00:16:50;;;;;;;4.70;0.65;;;;;;;-0.72;100.00;91817.59;2524615;23;20010;-84
2023/01/16 00:17:52;;;;;;;1.40;0.70;;;;;;;-0.69;100.00;91820.22;2533197;23;20448;-85
2023/01/16 00:18:55;;;;;;;3.53;0.80;;;;;;;-0.83;100.00;91810.50;2533594;23;20006;-86
2023/01/16 00:19:56;;;;;;;3.28;0.77;;;;;;;-0.77;100.00;91810.88;2534721;23;20006;-83
2023/01/16 00:20:57;;;;;;;1.58;0.77;;;;;;;-0.78;100.00;91804.88;2545815;23;20009;-87
2023/01/16 00:21:57;;;;;;;7.32;1.20;;;;;;;-0.82;100.00;91803.38;2534035;23;20041;-84
2023/01/16 00:22:58;;;;;;;4.07;1.08;;;;;;;-0.77;100.00;91795.88;2533406;23;20006;-83
2023/01/16 00:23:59;;;;;;;4.30;0.90;;;;;;;-0.70;100.00;91804.84;2546115;23;20064;-82
2023/01/16 00:25:00;;;;;;;3.33;0.80;;;;;;;-0.79;100.00;91795.50;2545793;23;20068;-84
2023/01/16 00:26:05;;;;;;;3.58;0.90;;;;;;;-0.65;100.00;91797.38;2521790;23;20014;-88
2023/01/16 00:27:06;;;;;;;5.10;1.10;;;;;;;-0.79;100.00;91797.34;2534861;23;20037;-87
2023/01/16 00:28:09;;;;;;;2.65;0.98;;;;;;;-0.66;100.00;91792.47;2545476;23;20008;-85
2023/01/16 00:29:10;;;;;;;3.55;1.15;;;;;;;-0.74;100.00;91793.63;2533599;23;20333;-84
2023/01/16 00:30:11;;;;;;;1.95;0.80;;;;;;;-0.67;100.00;91783.84;2533037;23;20022;-85
2023/01/16 00:31:12;;;;;;;5.43;0.90;;;;;;;-0.74;100.00;91789.13;2545857;23;20018;-90
2023/01/16 00:32:15;;;;;;;6.10;1.23;;;;;;;-0.71;100.00;91785.75;2557748;23;20113;-86
2023/01/16 00:33:17;;;;;;;3.30;1.17;;;;;;;-0.76;100.00;91775.63;2545707;23;20036;-89
2023/01/16 00:34:18;;;;;;;2.40;0.93;;;;;;;-0.84;100.00;91774.88;2522035;23;20010;-85
2023/01/16 00:35:19;;;;;;;1.35;0.85;;;;;;;-0.92;100.00;91775.25;2521169;23;20037;-86
2023/01/16 00:36:20;;;;;;;3.25;0.88;;;;;;;-0.87;100.00;91773.03;2533447;23;20349;-84
2023/01/16 00:37:21;;;;;;;4.82;0.90;;;;;;;-0.78;100.00;91772.66;2521233;23;20021;-82
2023/01/16 00:38:22;;;;;;;5.53;0.80;;;;;;;-0.73;100.00;91767.00;2521270;23;20440;-87
2023/01/16 00:39:24;;;;;;;3.85;1.00;;;;;;;-0.51;100.00;91768.47;2520943;23;20002;-85
2023/01/16 00:40:25;;;;;;;2.88;0.82;;;;;;;-0.63;100.00;91758.38;2520913;23;20002;-83
2023/01/16 00:41:26;;;;;;;2.85;1.10;;;;;;;-0.72;100.00;91759.88;2520686;23;20088;-86
2023/01/16 00:42:27;;;;;;;9.95;1.45;;;;;;;-0.77;100.00;91759.16;2521418;23;20006;-82
2023/01/16 00:43:30;;;;;;;4.55;0.98;;;;;;;-0.78;100.00;91762.16;2521821;23;20361;-84
2023/01/16 00:44:30;;;;;;;2.85;0.90;;;;;;;-0.76;100.00;91757.28;2534130;23;20519;-83
2023/01/16 00:45:31;;;;;;;4.63;2.00;;;;;;;-0.81;100.00;91753.16;2533306;23;20049;-85
2023/01/16 00:46:32;;;;;;;3.42;0.90;;;;;;;-0.70;100.00;91753.16;2545378;23;20006;-87
2023/01/16 00:47:33;;;;;;;6.20;1.02;;;;;;;-0.66;100.00;91746.03;2557782;23;20011;-86
2023/01/16 00:48:34;;;;;;;5.63;0.90;;;;;;;-0.73;100.00;91753.91;2557466;23;20168;-84
2023/01/16 00:49:35;;;;;;;5.28;1.00;;;;;;;-0.53;100.00;91744.50;2557711;23;20114;-84
2023/01/16 00:50:36;;;;;;;2.10;0.70;;;;;;;-0.64;100.00;91748.25;2532967;23;20010;-85
2023/01/16 00:51:37;;;;;;;2.83;0.90;;;;;;;-0.63;100.00;91745.25;2521526;23;20090;-89
2023/01/16 00:52:39;;;;;;;3.83;1.10;;;;;;;-0.65;100.00;91731.78;2533737;23;20009;-91
2023/01/16 00:53:40;;;;;;;3.30;0.90;;;;;;;-0.46;100.00;91719.34;2544813;23;20013;-86
2023/01/16 00:54:40;;;;;;;5.50;1.02;;;;;;;-0.54;100.00;91724.59;2544954;23;20068;-86
2023/01/16 00:55:42;;;;;;;3.38;1.70;;;;;;;-0.48;100.00;91726.81;2545361;23;20006;-88
2023/01/16 00:56:43;;;;;;;4.03;0.90;;;;;;;-0.45;100.00;91726.06;2521136;23;20068;-85
2023/01/16 00:57:44;;;;;;;3.83;0.90;;;;;;;-0.43;100.00;91718.59;2520955;23;20006;-86
2023/01/16 00:58:44;;;;;;;6.65;0.90;;;;;;;-0.49;100.00;91715.59;2532740;23;20006;-87
2023/01/16 00:59:45;;;;;;;4.13;0.90;;;;;;;-0.60;100.00;91707.00;2533118;23;20006;-86
2023/01/16 01:00:46;;;;;;;1.95;0.80;;;;;;;-0.66;100.00;91709.28;2520937;23;20070;-87
2023/01/16 01:01:47;;;;;;;3.40;0.98;;;;;;;-0.44;100.00;91703.94;2520970;23;20009;-84
2023/01/16 01:02:49;;;;;;;2.67;0.85;;;;;;;-0.46;100.00;91700.97;2533629;23;20080;-87
2023/01/16 01:03:50;;;;;;;2.60;0.82;;;;;;;-0.62;100.00;91706.63;2533177;23;20006;-84
2023/01/16 01:04:51;;;;;;;2.40;0.80;;;;;;;-0.63;100.00;91700.63;2532855;23;20013;-84
2023/01/16 01:05:52;;;;;;;2.78;0.80;;;;;;;-0.61;100.00;91700.28;2533248;23;20002;-85
2023/01/16 01:06:53;;;;;;;3.60;0.90;;;;;;;-0.63;100.00;91702.53;2557653;23;20015;-87
2023/01/16 01:07:54;;;;;;;3.13;0.80;;;;;;;-0.63;100.00;91703.25;2545355;23;20455;-84
2023/01/16 01:08:55;;;;;;;3.10;0.65;;;;;;;-0.50;100.00;91698.34;2532641;23;20029;-88
2023/01/16 01:09:56;;;;;;;4.47;1.35;;;;;;;-0.58;100.00;91691.63;2558221;23;20334;-85
2023/01/16 01:10:57;;;;;;;2.75;1.10;;;;;;;-0.66;100.00;91683.06;2545013;23;20017;-83
2023/01/16 01:11:58;;;;;;;2.13;0.93;;;;;;;-0.70;100.00;91687.56;2532953;23;20331;-86
2023/01/16 01:12:59;;;;;;;2.40;1.00;;;;;;;-0.69;100.00;91673.31;2521163;23;20007;-82
2023/01/16 01:14:00;;;;;;;2.58;0.90;;;;;;;-0.65;100.00;91675.94;2521374;23;20056;-87
2023/01/16 01:15:02;;;;;;;5.03;1.05;;;;;;;-0.72;100.00;91673.31;2520936;23;20605;-87
2023/01/16 01:16:03;;;;;;;4.03;1.38;;;;;;;-0.67;100.00;91678.16;2532878;23;20021;-83
2023/01/16 01:17:04;;;;;;;2.90;1.00;;;;;;;-0.73;100.00;91659.47;2533091;23;20069;-89
2023/01/16 01:18:05;;;;;;;3.28;0.88;;;;;;;-0.65;100.00;91662.81;2544457;23;20425;-86
2023/01/16 01:19:06;;;;;;;5.18;0.98;;;;;;;-0.70;100.00;91656.09;2545616;23;19998;-87
2023/01/16 01:20:08;;;;;;;3.67;1.00;;;;;;;-0.72;100.00;91654.94;2544990;23;20001;-85
2023/01/16 01:21:09;;;;;;;3.47;1.30;;;;;;;-0.70;100.00;91660.56;2533850;23;20033;-86
2023/01/16 01:22:10;;;;;;;6.72;1.13;;;;;;;-0.66;100.00;91662.06;2533085;23;20010;-84
2023/01/16 01:23:11;;;;;;;2.22;0.95;;;;;;;-0.72;100.00;91652.34;2533516;23;20009;-87
2023/01/16 01:24:12;;;;;;;3.78;1.00;;;;;;;-0.70;100.00;91658.72;2545579;23;20032;-86
2023/01/16 01:25:13;;;;;;;3.45;1.55;;;;;;;-0.57;100.00;91644.03;2545411;23;20021;-87
2023/01/16 01:26:16;;;;;;;2.33;1.15;;;;;;;-0.60;100.00;91654.53;2545131;23;20009;-87
2023/01/16 01:27:18;;;;;;;3.15;0.77;;;;;;;-0.61;100.00;91653.78;2545445;23;20005;-86
2023/01/16 01:28:19;;;;;;;2.03;0.85;;;;;;;-0.59;100.00;91654.16;2544991;23;20008;-83
2023/01/16 01:29:20;;;;;;;3.80;1.13;;;;;;;-0.72;100.00;91641.84;2533497;23;20448;-86
2023/01/16 01:30:21;;;;;;;4.10;1.08;;;;;;;-0.71;100.00;91644.06;2532573;23;20022;-87
2023/01/16 01:31:22;;;;;;;4.05;0.90;;;;;;;-0.73;100.00;91635.84;2533288;23;20006;-86
2023/01/16 01:32:23;;;;;;;1.80;0.90;;;;;;;-0.73;100.00;91633.22;2545449;23;20471;-83
2023/01/16 01:33:24;;;;;;;3.28;0.95;;;;;;;-0.81;100.00;91637.00;2534636;23;20006;-81
2023/01/16 01:34:43;;;;;;;1.92;0.80;;;;;;;-0.85;100.00;91623.88;2526679;23;20009;-81
2023/01/16 01:35:44;;;;;;;5.47;1.08;;;;;;;-0.78;100.00;91623.88;2536260;23;20014;-81
2023/01/16 01:36:45;;;;;;;5.13;1.45;;;;;;;-0.70;100.00;91623.81;2521851;23;20002;-84
2023/01/16 01:37:46;;;;;;;3.53;0.90;;;;;;;-0.73;100.00;91625.34;2520710;23;20003;-87
2023/01/16 01:38:49;;;;;;;3.13;0.90;;;;;;;-0.77;100.00;91614.88;2544883;23;20064;-83
2023/01/16 01:39:50;;;;;;;4.70;0.88;;;;;;;-0.81;100.00;91618.63;2532961;23;20006;-85
2023/01/16 01:40:51;;;;;;;2.05;1.00;;;;;;;-0.87;100.00;91615.66;2520842;23;20017;-84
2023/01/16 01:42:41;;;;;;;4.07;1.00;;;;;;;-0.93;100.00;91614.56;2521193;23;20014;-89
2023/01/16 01:43:14;;;;;;;4.57;1.10;;;;;;;-0.98;100.00;91614.19;2554606;23;20031;-84
2023/01/16 01:44:46;;;;;;;3.45;0.90;;;;;;;-1.00;100.00;91613.84;2565706;23;20483;-81
2023/01/16 01:45:54;;;;;;;4.18;0.88;;;;;;;-1.06;100.00;91608.97;2547010;23;20002;-80
2023/01/16 01:46:55;;;;;;;2.63;0.80;;;;;;;-1.10;100.00;91608.25;2528769;23;20092;-83
2023/01/16 01:48:12;;;;;;;4.43;1.17;;;;;;;-1.12;100.00;91602.63;2525086;23;20074;-83
2023/01/16 01:49:27;;;;;;;4.05;1.30;;;;;;;-1.13;100.00;91603.75;2529783;23;20507;-82
2023/01/16 01:50:42;;;;;;;1.65;1.02;;;;;;;-1.04;100.00;91603.38;2537304;23;20044;-84
2023/01/16 01:51:44;;;;;;;3.30;1.00;;;;;;;-1.05;100.00;91588.75;2531280;23;20022;-87
2023/01/16 01:52:45;;;;;;;5.20;1.00;;;;;;;-0.81;100.00;91598.41;2524893;23;20017;-85
2023/01/16 01:54:04;;;;;;;2.83;1.02;;;;;;;-0.93;100.00;91590.94;2536494;23;20397;-83
2023/01/16 01:55:10;;;;;;;3.92;0.98;;;;;;;-0.84;100.00;91595.78;2539762;23;20026;-83
2023/01/16 01:56:24;;;;;;;1.85;1.02;;;;;;;-0.94;100.00;91589.47;2524447;23;20030;-82
2023/01/16 01:57:30;;;;;;;4.20;1.02;;;;;;;-1.04;100.00;91588.38;2539337;23;20009;-87
2023/01/16 01:58:33;;;;;;;1.13;0.90;;;;;;;-1.11;100.00;91580.53;2546367;23;20037;-82
2023/01/16 01:59:40;;;;;;;4.25;0.95;;;;;;;-1.15;100.00;91576.41;2545471;23;20031;-88
2023/01/16 02:00:41;;;;;;;4.15;1.10;;;;;;;-1.15;100.00;91571.91;2533690;23;20006;-84
2023/01/16 02:01:42;;;;;;;5.38;1.42;;;;;;;-1.23;100.00;91559.97;2520500;23;20038;-87
2023/01/16 02:02:46;;;;;;;2.63;1.10;;;;;;;-1.25;100.00;91566.72;2520545;23;20345;-83
2023/01/16 02:03:58;;;;;;;3.67;1.38;;;;;;;-1.22;100.00;91566.72;2522387;23;20006;-84
2023/01/16 02:05:03;;;;;;;6.22;1.30;;;;;;;-1.23;100.00;91559.22;2525470;23;20045;-84
2023/01/16 02:06:12;;;;;;;4.90;1.95;;;;;;;-1.18;100.00;91556.22;2522349;23;20014;-88
2023/01/16 02:07:17;;;;;;;2.92;1.48;;;;;;;-1.12;100.00;91555.44;2523378;23;20022;-87
2023/01/16 02:08:21;;;;;;;3.05;1.92;;;;;;;-1.25;100.00;91556.25;2522282;23;20081;-83
2023/01/16 02:09:24;;;;;;;6.97;1.80;;;;;;;-1.26;100.00;91558.13;2521810;23;20006;-84
2023/01/16 02:10:39;;;;;;;3.33;2.00;;;;;;;-1.11;100.00;91553.56;2522464;23;20006;-84
2023/01/16 02:11:54;;;;;;;5.05;1.90;;;;;;;-1.18;100.00;91558.84;2526592;23;20010;-83
2023/01/16 02:12:57;;;;;;;4.00;2.20;;;;;;;-1.09;100.00;91546.81;2538537;23;20088;-88
2023/01/16 02:14:10;;;;;;;3.25;1.85;;;;;;;-1.20;100.00;91540.88;2533119;23;20085;-86
2023/01/16 02:15:11;;;;;;;4.70;1.75;;;;;;;-1.22;100.00;91542.38;2526047;23;20006;-87
2023/01/16 02:29:54;;;;;;;4.29;2.52;;;;;;;-1.12;100.00;91515.38;5170594;22;21672;-82
2023/01/16 02:31:19;;;;;;;3.88;2.15;;;;;;;-1.16;100.00;91514.63;2561308;23;20017;-85
2023/01/16 02:32:39;;;;;;;4.35;2.10;;;;;;;-1.10;100.00;91508.63;2546691;23;20016;-84
2023/01/16 02:33:58;;;;;;;5.80;2.40;;;;;;;-1.00;100.00;91511.59;2552645;23;20009;-85
2023/01/16 02:35:05;;;;;;;3.22;1.88;;;;;;;-0.99;100.00;91507.81;2544469;23;20093;-87
2023/01/16 02:36:36;;;;;;;4.07;2.17;;;;;;;-1.10;100.00;91500.78;2551297;23;20128;-86
2023/01/16 02:37:59;;;;;;;6.25;2.10;;;;;;;-1.20;100.00;91500.81;2560923;23;20008;-86
2023/01/16 02:39:31;;;;;;;2.67;1.80;;;;;;;-1.15;100.00;91485.41;2557893;23;20380;-86
2023/01/16 02:41:01;;;;;;;3.00;1.98;;;;;;;-1.12;100.00;91483.91;2567353;23;20021;-83
2023/01/16 02:42:16;;;;;;;2.28;1.80;;;;;;;-1.14;100.00;91478.28;2554649;23;20013;-87
2023/01/16 02:43:30;;;;;;;3.10;2.25;;;;;;;-1.16;100.00;91473.44;2551505;23;20096;-86
2023/01/16 02:45:01;;;;;;;4.00;2.10;;;;;;;-1.04;100.00;91472.25;2551447;23;20016;-88
2023/01/16 02:46:23;;;;;;;5.45;1.92;;;;;;;-1.08;100.00;91464.41;2562323;23;20449;-86
2023/01/16 02:47:31;;;;;;;2.75;1.98;;;;;;;-1.06;100.00;91464.03;2553248;23;20004;-87
2023/01/16 02:48:38;;;;;;;4.85;1.73;;;;;;;-1.22;100.00;91464.50;2540078;23;20397;-87
2023/01/16 02:50:12;;;;;;;4.07;2.42;;;;;;;-1.06;100.00;91462.16;2551963;23;20300;-87
2023/01/16 02:51:29;;;;;;;5.00;1.67;;;;;;;-1.07;100.00;91460.66;2542485;23;20031;-81
2023/01/16 02:52:34;;;;;;;3.35;1.75;;;;;;;-1.03;100.00;91455.41;2546151;23;20014;-85
2023/01/16 02:53:48;;;;;;;3.33;1.40;;;;;;;-0.89;100.00;91444.06;2530587;23;20002;-83
2023/01/16 02:55:10;;;;;;;5.50;2.03;;;;;;;-1.10;100.00;91450.97;2543566;23;20001;-82
2023/01/16 02:56:17;;;;;;;2.03;1.60;;;;;;;-1.09;100.00;91447.19;2545381;23;20701;-87
2023/01/16 02:57:26;;;;;;;3.45;1.70;;;;;;;-1.07;100.00;91431.81;2549987;23;20056;-88
2023/01/16 02:58:30;;;;;;;5.28;1.70;;;;;;;-1.06;100.00;91428.06;2549565;23;20144;-86
2023/01/16 02:59:32;;;;;;;1.65;1.50;;;;;;;-1.16;100.00;91428.88;2538239;23;20041;-88
2023/01/16 03:00:34;;;;;;;4.97;1.90;;;;;;;-1.25;100.00;91431.19;2536685;23;20021;-88
2023/01/16 03:01:35;;;;;;;5.47;1.63;;;;;;;-1.28;100.00;91422.19;2536217;23;20002;-89
2023/01/16 03:02:36;;;;;;;2.83;1.60;;;;;;;-1.26;100.00;91427.06;2524848;23;20010;-84
2023/01/16 03:03:53;;;;;;;4.30;1.60;;;;;;;-1.27;100.00;91415.84;2524309;23;20006;-88
2023/01/16 03:04:54;;;;;;;3.38;1.30;;;;;;;-1.03;100.00;91414.19;2539876;23;20009;-86
2023/01/16 03:06:00;;;;;;;3.75;1.40;;;;;;;-1.10;100.00;91416.88;2536695;23;20001;-87
2023/01/16 03:07:13;;;;;;;6.00;1.48;;;;;;;-0.98;100.00;91413.03;2537329;23;20013;-83
2023/01/16 03:08:33;;;;;;;2.50;1.65;;;;;;;-1.19;100.00;91421.03;2528811;23;20010;-88
2023/01/16 03:09:51;;;;;;;4.38;1.50;;;;;;;-1.12;100.00;91416.50;2531986;23;20017;-85
2023/01/16 03:11:13;;;;;;;2.75;1.40;;;;;;;-1.15;100.00;91404.16;2543370;23;20006;-87
2023/01/16 03:12:29;;;;;;;4.88;1.77;;;;;;;-0.99;100.00;91395.81;2541357;23;20009;-88
2023/01/16 03:14:01;;;;;;;2.60;1.30;;;;;;;-1.01;100.00;91395.44;2551522;23;20020;-84
2023/01/16 03:15:13;;;;;;;4.35;1.30;;;;;;;-1.02;100.00;91397.31;2556948;23;20088;-85
2023/01/16 03:16:29;;;;;;;3.10;1.60;;;;;;;-1.12;100.00;91392.91;2539738;23;20012;-88
2023/01/16 03:18:14;;;;;;;3.30;1.25;;;;;;;-1.07;100.00;91383.88;2531941;23;20010;-85
2023/01/16 03:19:44;;;;;;;2.85;1.13;;;;;;;-1.04;100.00;91378.63;2508674;23;20078;-88
2023/01/16 03:21:01;;;;;;;3.78;1.30;;;;;;;-1.12;100.00;91381.69;2544075;23;20009;-88
2023/01/16 03:22:14;;;;;;;3.25;1.17;;;;;;;-0.93;100.00;91381.16;2551635;23;20028;-85
2023/01/16 03:23:28;;;;;;;2.25;1.00;;;;;;;-0.95;100.00;91370.31;2538968;23;20013;-84
2023/01/16 03:24:44;;;;;;;4.28;1.20;;;;;;;-1.10;100.00;91359.19;2548019;23;20081;-84
2023/01/16 03:26:12;;;;;;;4.03;1.55;;;;;;;-1.03;100.00;91361.00;2530489;23;20034;-86
2023/01/16 03:27:31;;;;;;;5.68;1.40;;;;;;;-1.10;100.00;91353.19;2535284;23;20098;-88
2023/01/16 03:29:09;;;;;;;2.75;1.25;;;;;;;-1.11;100.00;91341.97;2556134;23;20092;-84
2023/01/16 03:30:22;;;;;;;5.78;1.40;;;;;;;-1.06;100.00;91353.91;2545572;23;20029;-85
2023/01/16 03:31:38;;;;;;;4.38;1.33;;;;;;;-0.95;100.00;91336.22;2539024;23;20013;-84
2023/01/16 03:32:49;;;;;;;4.18;1.30;;;;;;;-1.10;100.00;91334.84;2536483;23;20048;-85
2023/01/16 03:34:19;;;;;;;2.63;1.20;;;;;;;-0.95;100.00;91340.75;2526105;23;20005;-84
2023/01/16 03:35:30;;;;;;;;;;;;;;;-0.99;100.00;91332.88;2533856;23;20059;-85
2023/01/16 03:37:05;;;;;;;5.30;1.30;;;;;;;-1.06;100.00;91325.06;2525761;23;19906;-85
2023/01/16 03:38:09;;;;;;;2.00;1.30;;;;;;;-1.02;100.00;91321.28;2540631;23;20407;-87
2023/01/16 03:39:13;;;;;;;4.82;1.30;;;;;;;-0.93;100.00;91315.59;2522871;23;20058;-86
2023/01/16 03:40:22;;;;;;;3.47;1.30;;;;;;;-1.06;100.00;91317.22;2547397;23;20029;-87
2023/01/16 03:41:25;;;;;;;3.60;1.40;;;;;;;-1.07;100.00;91313.09;2546327;23;20029;-83
2023/01/16 03:42:34;;;;;;;5.80;1.70;;;;;;;-1.05;100.00;91308.97;2546506;23;20537;-91
2023/01/16 03:43:52;;;;;;;8.02;1.83;;;;;;;-0.85;100.00;91303.19;2535107;23;20013;-86
2023/01/16 03:44:59;;;;;;;4.93;1.60;;;;;;;-0.77;100.00;91304.59;2527536;23;20017;-84
2023/01/16 03:46:18;;;;;;;4.78;1.10;;;;;;;-0.98;100.00;91295.03;2548948;23;20427;-84
2023/01/16 03:47:26;;;;;;;3.83;1.50;;;;;;;-1.11;100.00;91288.78;2558342;23;20036;-81
2023/01/16 03:48:42;;;;;;;6.00;1.80;;;;;;;-0.99;100.00;91284.97;2545385;23;20077;-83
2023/01/16 03:49:54;;;;;;;3.67;2.00;;;;;;;-1.08;100.00;91285.41;2539605;23;20010;-84
2023/01/16 03:51:07;;;;;;;4.15;1.20;;;;;;;-1.10;100.00;91271.91;2557692;23;19997;-85
2023/01/16 03:52:12;;;;;;;4.38;1.65;;;;;;;-1.15;100.00;91274.97;2545633;23;20009;-84
2023/01/16 03:53:17;;;;;;;3.33;1.23;;;;;;;-1.24;100.00;91269.44;2535686;23;20021;-83
2023/01/16 03:54:40;;;;;;;1.92;1.30;;;;;;;-1.12;100.00;91268.94;2534044;23;20006;-83
2023/01/16 03:55:50;;;;;;;3.65;1.42;;;;;;;-0.93;100.00;91265.78;2537619;23;20017;-84
2023/01/16 03:57:15;;;;;;;5.97;1.67;;;;;;;-1.10;100.00;91264.06;2535110;23;20421;-84
2023/01/16 03:58:31;;;;;;;3.53;1.20;;;;;;;-1.18;100.00;91267.91;2537662;23;20009;-87
2023/01/16 03:59:34;;;;;;;1.83;1.25;;;;;;;-1.14;100.00;91256.25;2527366;23;19998;-80
2023/01/16 04:00:46;;;;;;;4.03;1.27;;;;;;;-1.01;100.00;91256.47;2534157;23;20431;-85
2023/01/16 04:01:55;;;;;;;2.70;1.20;;;;;;;-1.06;100.00;91256.91;2536227;23;20010;-88
2023/01/16 04:03:10;;;;;;;3.75;1.38;;;;;;;-1.14;100.00;91251.00;2536630;23;20001;-82
2023/01/16 04:04:20;;;;;;;3.75;1.00;;;;;;;-1.06;100.00;91252.41;2548758;23;20016;-90
2023/01/16 04:05:28;;;;;;;3.88;1.48;;;;;;;-1.15;100.00;91244.25;2535426;23;20005;-84
2023/01/16 04:06:35;;;;;;;5.22;1.38;;;;;;;-1.34;100.00;91232.44;2524251;23;20041;-87
2023/01/16 04:07:45;;;;;;;4.13;1.30;;;;;;;-1.13;100.00;91228.16;2535674;23;20037;-87
2023/01/16 04:08:48;;;;;;;4.45;1.60;;;;;;;-1.11;100.00;91228.50;2535612;23;20013;-85
2023/01/16 04:10:02;;;;;;;3.53;1.35;;;;;;;-1.17;100.00;91222.19;2535254;23;20037;-86
2023/01/16 04:11:04;;;;;;;3.17;1.63;;;;;;;-1.17;100.00;91220.31;2538381;23;20006;-85
2023/01/16 04:12:07;;;;;;;2.75;1.00;;;;;;;-1.27;100.00;91210.69;2546142;23;20088;-83
2023/01/16 04:13:12;;;;;;;2.05;1.10;;;;;;;-1.35;100.00;91209.25;2533632;23;20022;-88
2023/01/16 04:14:15;;;;;;;4.57;1.20;;;;;;;-1.45;100.00;91202.94;2523197;23;20006;-84
2023/01/16 04:15:19;;;;;;;2.75;1.10;;;;;;;-1.43;100.00;91200.69;2546826;23;20080;-88
2023/01/16 04:16:21;;;;;;;1.70;1.17;;;;;;;-1.33;100.00;91192.00;2546260;23;20024;-85
2023/01/16 04:17:23;;;;;;;3.40;1.45;;;;;;;-1.48;100.00;91200.38;2522045;23;20345;-89
2023/01/16 04:18:30;;;;;;;2.65;1.30;;;;;;;-1.54;100.00;91194.78;2521753;23;20017;-86
2023/01/16 04:19:33;;;;;;;5.63;1.40;;;;;;;-1.59;100.00;91192.59;2534629;23;20065;-83
2023/01/16 04:20:37;;;;;;;1.90;1.20;;;;;;;-1.52;100.00;91182.06;2522839;23;20053;-82
2023/01/16 04:21:43;;;;;;;6.63;1.50;;;;;;;-1.60;100.00;91184.00;2535203;23;20393;-83
2023/01/16 04:22:48;;;;;;;4.40;1.30;;;;;;;-1.66;100.00;91187.44;2546989;23;20036;-82
2023/01/16 04:23:53;;;;;;;5.00;1.40;;;;;;;-1.66;100.00;91184.81;2546052;23;20084;-84
2023/01/16 04:25:00;;;;;;;5.28;1.10;;;;;;;-1.67;100.00;91186.66;2551013;23;20001;-81
2023/01/16 04:26:01;;;;;;;3.38;1.10;;;;;;;-1.70;100.00;91179.59;2547229;23;20009;-84
2023/01/16 04:27:03;;;;;;;2.50;1.30;;;;;;;-1.59;100.00;91176.88;2546163;23;20032;-83
2023/01/16 04:28:04;;;;;;;2.63;1.25;;;;;;;-1.66;100.00;91176.94;2545733;23;20006;-82
2023/01/16 04:29:04;;;;;;;2.85;1.33;;;;;;;-1.67;100.00;91165.72;2544583;23;20002;-84
2023/01/16 04:30:07;;;;;;;1.42;1.23;;;;;;;-1.60;100.00;91172.78;2533129;23;20006;-83
2023/01/16 04:31:07;;;;;;;5.32;1.33;;;;;;;-1.71;100.00;91164.25;2522161;23;20360;-83
2023/01/16 04:32:08;;;;;;;4.47;1.67;;;;;;;-1.74;100.00;91165.78;2533374;23;20009;-83
2023/01/16 04:33:09;;;;;;;3.60;1.35;;;;;;;-1.77;100.00;91163.94;2557724;23;20573;-83
2023/01/16 04:34:10;;;;;;;2.60;1.30;;;;;;;-1.64;100.00;91170.19;2545687;23;20010;-83
2023/01/16 04:35:11;;;;;;;3.00;1.63;;;;;;;-1.55;100.00;91157.38;2545298;23;20008;-82
2023/01/16 04:36:12;;;;;;;8.80;6.30;;;;;;;-1.66;100.00;91161.22;2533295;23;20010;-84
2023/01/16 04:37:15;;;;;;;7.50;3.58;;;;;;;-1.52;100.00;91148.00;2533435;23;20444;-84
2023/01/16 04:38:16;;;;;;;2.75;1.70;;;;;;;-1.59;100.00;91148.06;2522151;23;20102;-86
2023/01/16 04:39:17;;;;;;;2.97;1.40;;;;;;;-1.69;100.00;91141.78;2545781;23;20440;-81
2023/01/16 04:40:28;;;;;;;7.10;2.20;;;;;;;-1.71;100.00;91143.28;2545735;23;20025;-81
2023/01/16 04:41:35;;;;;;;4.28;1.70;;;;;;;-1.78;100.00;91139.63;2534433;23;20016;-84
2023/01/16 04:42:36;;;;;;;1.98;1.77;;;;;;;-1.68;100.00;91130.19;2534024;23;20058;-86
2023/01/16 04:43:37;;;;;;;5.18;1.95;;;;;;;-1.65;100.00;91137.28;2533306;23;20012;-82
2023/01/16 04:44:40;;;;;;;3.55;1.63;;;;;;;-1.75;100.00;91127.63;2533805;23;20002;-84
2023/01/16 04:45:41;;;;;;;2.75;1.80;;;;;;;-1.66;100.00;91130.56;2521776;23;20002;-85
2023/01/16 04:46:42;;;;;;;6.07;2.10;;;;;;;-1.69;100.00;91122.72;2533321;23;20006;-83
2023/01/16 04:47:47;;;;;;;10.80;2.40;;;;;;;-1.74;100.00;91129.13;2533038;23;20036;-83
2023/01/16 04:48:48;;;;;;;2.85;1.85;;;;;;;-1.64;100.00;91123.03;2533621;23;20523;-83
2023/01/16 04:49:49;;;;;;;3.95;2.15;;;;;;;-1.59;100.00;91121.88;2521616;23;20418;-84
2023/01/16 04:50:50;;;;;;;3.35;1.88;;;;;;;-1.68;100.00;91114.47;2520998;23;20006;-84
2023/01/16 04:51:51;;;;;;;6.18;2.45;;;;;;;-1.78;100.00;91112.69;2534524;23;20008;-82
2023/01/16 04:52:53;;;;;;;2.78;2.25;;;;;;;-1.84;100.00;91109.75;2540924;23;20002;-81
2023/01/16 04:53:54;;;;;;;5.30;1.95;;;;;;;-1.84;100.00;91109.75;2529429;23;20002;-80
2023/01/16 04:54:55;;;;;;;3.00;2.03;;;;;;;-1.85;100.00;91108.25;2542236;23;20002;-85
2023/01/16 04:55:56;;;;;;;5.18;2.20;;;;;;;-1.83;100.00;91106.00;2547315;23;20024;-83
2023/01/16 04:56:57;;;;;;;4.43;2.20;;;;;;;-1.82;100.00;91099.63;2545986;23;20012;-87
2023/01/16 04:57:58;;;;;;;5.20;2.20;;;;;;;-1.67;100.00;91089.00;2532638;23;20001;-87
2023/01/16 04:58:59;;;;;;;5.25;2.42;;;;;;;-1.81;100.00;91085.41;2533131;23;20013;-88
2023/01/16 05:00:00;;;;;;;4.00;2.45;;;;;;;-1.89;100.00;91085.84;2533599;23;20044;-90
2023/01/16 05:01:01;;;;;;;3.40;2.60;;;;;;;-1.82;100.00;91077.94;2545614;23;20005;-86
2023/01/16 05:02:09;;;;;;;5.25;2.25;;;;;;;-1.82;100.00;91076.06;2533388;23;20763;-86
2023/01/16 05:03:10;;;;;;;6.07;2.40;;;;;;;-1.92;100.00;91081.41;2523896;23;20006;-87
2023/01/16 05:04:13;;;;;;;4.32;2.60;;;;;;;-2.00;100.00;91067.63;2520941;23;20017;-87
2023/01/16 05:05:14;;;;;;;4.88;2.83;;;;;;;-2.01;100.00;91073.25;2533986;23;20018;-87
2023/01/16 05:06:16;;;;;;;3.03;2.30;;;;;;;-1.86;100.00;91066.75;2532915;23;20002;-87
2023/01/16 05:07:17;;;;;;;4.47;2.42;;;;;;;-1.85;100.00;91071.59;2521421;23;20010;-84
2023/01/16 05:08:18;;;;;;;7.05;2.47;;;;;;;-1.92;100.00;91058.59;2521381;23;20006;-83
2023/01/16 05:09:20;;;;;;;6.68;2.55;;;;;;;-1.96;100.00;91059.75;2533754;23;20057;-85
2023/01/16 05:10:21;;;;;;;3.63;2.58;;;;;;;-1.98;100.00;91062.00;2534173;23;20005;-85
2023/01/16 05:11:22;;;;;;;5.47;3.10;;;;;;;-1.77;100.00;91061.81;2535613;23;20061;-81
2023/01/16 05:12:23;;;;;;;6.68;3.47;;;;;;;-1.78;100.00;91047.97;2524597;23;20441;-82
2023/01/16 05:13:24;;;;;;;5.00;3.13;;;;;;;-1.61;100.00;91045.56;2521586;23;20038;-86
2023/01/16 05:14:25;;;;;;;3.50;3.05;;;;;;;-1.63;100.00;91042.59;2533472;23;20079;-83
2023/01/16 05:15:25;;;;;;;6.50;2.80;;;;;;;-1.67;100.00;91037.38;2532730;23;20013;-89
2023/01/16 05:16:27;;;;;;;3.65;2.50;;;;;;;-1.59;100.00;91041.41;2533454;23;20009;-87
2023/01/16 05:17:27;;;;;;;5.28;2.90;;;;;;;-1.64;100.00;91043.72;2533378;23;20060;-83
2023/01/16 05:18:28;;;;;;;6.47;4.47;;;;;;;-1.62;100.00;91036.22;2520663;23;20426;-87
2023/01/16 05:19:29;;;;;;;4.13;3.20;;;;;;;-1.59;100.00;91040.66;2521246;23;20126;-86
2023/01/16 05:20:30;;;;;;;4.63;3.38;;;;;;;-1.73;100.00;91038.94;2522241;23;20062;-85
2023/01/16 05:21:32;;;;;;;4.88;4.40;;;;;;;-1.80;100.00;91034.53;2521122;23;20369;-83